createdAt,value
2023-03-29T00:01:35.014Z,64.59
2023-03-29T00:04:20.247Z,64.30
2023-03-29T00:07:04.514Z,64.75
2023-03-29T00:09:48.721Z,64.94
2023-03-29T00:12:33.056Z,66.33
2023-03-29T00:15:16.581Z,67.40
2023-03-29T00:18:00.517Z,67.90
2023-03-29T00:20:44.100Z,68.23
2023-03-29T00:23:27.840Z,68.56
2023-03-29T00:26:11.885Z,69.82
2023-03-29T00:28:55.497Z,68.47
2023-03-29T00:31:39.240Z,68.19
2023-03-29T00:34:25.019Z,67.76
2023-03-29T00:37:09.753Z,67.54
2023-03-29T00:39:53.670Z,66.94
2023-03-29T05:43:56.847Z,71.68
2023-03-29T05:46:42.539Z,71.31
2023-03-29T05:49:30.493Z,71.37
2023-03-29T05:52:26.258Z,72.30
2023-03-29T05:55:10.776Z,70.47
2023-03-29T05:57:54.412Z,71.07
2023-03-29T06:00:43.026Z,72.85
2023-03-29T06:03:42.357Z,71.20
2023-03-29T06:06:26.103Z,71.21
2023-03-29T06:09:10.109Z,70.26
2023-03-29T06:12:04.193Z,71.11
2023-03-29T06:15:05.470Z,71.27
2023-03-29T06:17:55.496Z,71.15
2023-03-29T06:20:39.310Z,72.32
2023-03-29T06:23:29.541Z,71.76
2023-03-29T06:26:13.449Z,72.20
2023-03-29T06:28:57.604Z,73.78
2023-03-29T06:31:41.305Z,73.06
2023-03-29T06:34:29.467Z,72.00
2023-03-29T06:37:25.263Z,72.16
2023-03-29T06:40:21.544Z,72.13
2023-03-29T06:43:06.877Z,70.54
2023-03-29T06:46:02.852Z,70.52
2023-03-29T06:49:01.220Z,69.93
2023-03-29T06:51:53.150Z,70.61
2023-03-29T06:54:37.311Z,70.35
2023-03-29T06:57:21.056Z,69.62
2023-03-29T07:00:19.397Z,69.79
2023-03-29T07:03:23.661Z,69.13
2023-03-29T07:06:12.376Z,68.92
2023-03-29T07:08:59.961Z,69.91
2023-03-29T07:12:10.094Z,69.61
2023-03-29T07:14:53.682Z,68.54
2023-03-29T07:17:38.265Z,68.77
2023-03-29T07:20:23.517Z,68.68
2023-03-29T07:23:18.141Z,67.92
2023-03-29T07:26:02.787Z,67.49
2023-03-29T07:28:47.536Z,67.78
2023-03-29T07:31:35.154Z,67.53
2023-03-29T07:34:42.308Z,67.70
2023-03-29T07:37:30.986Z,66.90
2023-03-29T07:40:22.760Z,66.38
2023-03-29T07:43:14.942Z,67.18
2023-03-29T07:46:06.978Z,67.06
2023-03-29T07:48:52.328Z,66.06
2023-03-29T07:51:37.230Z,67.18
2023-03-29T07:54:25.924Z,65.40
2023-03-29T07:57:17.333Z,65.26
2023-03-29T08:00:19.786Z,64.56
2023-03-29T08:03:17.887Z,64.98
2023-03-29T08:06:04.057Z,64.45
2023-03-29T08:08:47.783Z,64.47
2023-03-29T08:11:33.912Z,63.29
2023-03-29T08:14:22.144Z,62.45
2023-03-29T08:17:20.270Z,63.05
2023-03-29T08:20:10.899Z,62.29
2023-03-29T08:22:57.260Z,62.48
2023-03-29T08:26:08.777Z,62.83
2023-03-29T08:28:52.458Z,62.94
2023-03-29T08:31:38.188Z,62.60
2023-03-29T08:34:21.949Z,62.33
2023-03-29T08:37:28.777Z,62.61
2023-03-29T08:40:26.813Z,62.51
2023-03-29T08:44:20.748Z,62.60
2023-03-29T08:47:50.112Z,62.61
2023-03-29T08:50:54.882Z,62.22
2023-03-29T08:53:44.278Z,61.93
2023-03-29T08:56:52.929Z,61.10
2023-03-29T08:59:45.807Z,61.17
2023-03-29T09:02:36.393Z,60.23
2023-03-29T09:05:40.266Z,59.26
2023-03-29T09:08:29.766Z,59.62
2023-03-29T09:11:46.835Z,59.87
2023-03-29T09:15:02.350Z,58.82
2023-03-29T09:18:34.717Z,59.99
2023-03-29T09:21:46.947Z,58.10
2023-03-29T09:24:49.878Z,57.84
2023-03-29T09:28:08.369Z,57.62
2023-03-29T09:31:34.911Z,58.93
2023-03-29T09:34:30.978Z,57.89
2023-03-29T09:37:36.507Z,59.22
2023-03-29T09:40:38.560Z,57.59
2023-03-29T09:43:40.962Z,57.82
2023-03-29T09:46:45.586Z,57.61
2023-03-29T09:49:39.136Z,56.92
2023-03-29T09:52:23.701Z,56.39
2023-03-29T09:55:27.832Z,55.19
2023-03-29T09:58:44.065Z,56.07
2023-03-29T10:01:38.689Z,55.12
2023-03-29T10:04:27.001Z,55.72
2023-03-29T10:07:20.775Z,55.04
2023-03-29T10:10:31.029Z,56.35
2023-03-29T10:13:28.535Z,56.04
2023-03-29T10:16:30.678Z,55.38
2023-03-29T10:19:35.674Z,54.50
2023-03-29T10:22:28.045Z,54.81
2023-03-29T10:25:18.582Z,54.94
2023-03-29T10:28:28.133Z,54.61
2023-03-29T10:31:22.663Z,54.84
2023-03-29T10:34:09.795Z,54.34
2023-03-29T10:37:02.601Z,54.38
2023-03-29T10:39:52.316Z,53.87
2023-03-29T10:42:36.119Z,54.18
2023-03-29T10:45:41.209Z,54.86
2023-03-29T10:48:31.675Z,55.29
2023-03-29T10:51:19.364Z,55.28
2023-03-29T10:54:05.410Z,55.27
2023-03-29T10:56:58.045Z,54.30
2023-03-29T10:59:53.853Z,53.86
2023-03-29T11:02:37.841Z,52.61
2023-03-29T11:06:07.911Z,53.77
2023-03-29T11:09:01.832Z,54.07
2023-03-29T11:12:14.995Z,54.02
2023-03-29T11:15:38.642Z,54.94
2023-03-29T11:18:55.768Z,54.67
2023-03-29T11:22:15.216Z,53.98
2023-03-29T11:25:30.460Z,54.36
2023-03-29T11:28:39.261Z,54.15
2023-03-29T11:32:10.655Z,53.66
2023-03-29T11:35:08.087Z,55.19
2023-03-29T11:38:01.430Z,54.24
2023-03-29T11:41:05.067Z,54.55
2023-03-29T11:44:17.751Z,55.40
2023-03-29T11:47:15.627Z,55.79
2023-03-29T11:50:18.916Z,54.39
2023-03-29T11:53:37.379Z,53.99
2023-03-29T11:56:31.872Z,54.43
2023-03-29T11:59:43.613Z,54.73
2023-03-29T12:02:48.608Z,54.48
2023-03-29T12:05:53.397Z,53.54
2023-03-29T12:09:11.301Z,53.79
2023-03-29T12:12:23.731Z,53.90
2023-03-29T12:15:22.283Z,55.06
2023-03-29T12:18:27.988Z,54.49
2023-03-29T12:21:23.757Z,53.08
2023-03-29T12:24:15.983Z,52.23
2023-03-29T12:27:28.136Z,52.82
2023-03-29T12:30:36.834Z,52.31
2023-03-29T12:33:43.966Z,53.62
2023-03-29T12:37:09.959Z,53.21
2023-03-29T12:40:16.064Z,53.12
2023-03-29T12:43:43.614Z,52.46
2023-03-29T12:46:47.609Z,52.92
2023-03-29T12:49:39.145Z,52.80
2023-03-29T12:52:33.156Z,52.10
2023-03-29T12:55:49.386Z,52.13
2023-03-29T12:58:39.409Z,52.62
2023-03-29T13:01:41.416Z,53.05
2023-03-29T13:05:02.420Z,52.23
2023-03-29T13:07:47.994Z,53.09
2023-03-29T13:10:42.411Z,52.23
2023-03-29T13:13:36.978Z,51.94
2023-03-29T13:16:33.373Z,52.31
2023-03-29T13:19:56.779Z,52.27
2023-03-29T13:23:22.877Z,52.14
2023-03-29T13:26:41.343Z,52.14
2023-03-29T13:29:53.626Z,52.33
2023-03-29T13:32:49.683Z,52.58
2023-03-29T13:36:22.770Z,52.79
2023-03-29T13:39:15.551Z,53.28
2023-03-29T13:42:33.208Z,54.15
2023-03-29T13:45:22.919Z,53.48
2023-03-29T13:48:33.856Z,53.26
2023-03-29T13:51:20.535Z,52.99
2023-03-29T13:54:35.945Z,53.84
2023-03-29T13:57:35.055Z,53.11
2023-03-29T14:00:55.808Z,53.16
2023-03-29T14:03:51.988Z,53.37
2023-03-29T14:06:39.863Z,53.35
2023-03-29T14:09:33.525Z,52.97
2023-03-29T14:12:18.818Z,53.16
2023-03-29T14:15:07.154Z,53.13
2023-03-29T14:18:00.826Z,54.06
2023-03-29T14:20:49.711Z,53.69
2023-03-29T14:23:37.714Z,54.50
2023-03-29T14:26:30.505Z,54.19
2023-03-29T14:29:15.915Z,53.99
2023-03-29T14:32:16.824Z,55.22
2023-03-29T14:35:01.393Z,54.73
2023-03-29T14:37:48.277Z,55.00
2023-03-29T14:40:32.776Z,55.65
2023-03-29T14:43:27.225Z,54.97
2023-03-29T14:46:14.811Z,54.81
2023-03-29T14:49:02.431Z,55.31
2023-03-29T14:51:48.167Z,55.66
2023-03-29T14:54:36.368Z,55.26
2023-03-29T14:57:27.474Z,55.32
2023-03-29T15:00:22.813Z,55.73
2023-03-29T15:03:16.475Z,56.56
2023-03-29T15:06:05.567Z,56.70
2023-03-29T15:09:04.527Z,56.70
2023-03-29T15:12:04.310Z,56.70
2023-03-29T15:14:52.570Z,56.74
2023-03-29T15:17:52.367Z,56.59
2023-03-29T15:20:42.556Z,56.70
2023-03-29T15:23:26.840Z,56.45
2023-03-29T15:26:16.226Z,56.64
2023-03-29T15:29:17.118Z,57.30
2023-03-29T15:32:03.965Z,57.96
2023-03-29T15:35:03.208Z,59.52
2023-03-29T15:37:47.355Z,60.01
2023-03-29T15:40:35.142Z,58.36
2023-03-29T15:43:21.698Z,58.16
2023-03-29T15:46:05.786Z,57.37
2023-03-29T15:48:52.721Z,57.54
2023-03-29T15:51:38.981Z,57.65
2023-03-29T15:54:24.877Z,57.71
2023-03-29T15:57:15.230Z,57.54
2023-03-29T15:59:59.272Z,57.33
2023-03-29T16:02:43.335Z,57.30
2023-03-29T16:05:27.560Z,57.41
2023-03-29T16:08:13.346Z,58.00
2023-03-29T16:10:56.896Z,58.14
2023-03-29T16:13:40.665Z,57.72
2023-03-29T16:16:25.047Z,57.25
2023-03-29T16:19:08.785Z,57.75
2023-03-29T16:21:54.168Z,57.88
2023-03-29T16:24:37.857Z,58.72
2023-03-29T16:27:21.472Z,59.37
2023-03-29T16:30:06.106Z,59.78
2023-03-29T16:32:49.976Z,58.83
2023-03-29T16:35:38.026Z,59.42
2023-03-29T16:38:24.096Z,60.00
2023-03-29T16:41:15.902Z,59.01
2023-03-29T16:44:01.823Z,58.74
2023-03-29T16:46:46.151Z,60.07
2023-03-29T16:49:29.987Z,59.92
2023-03-29T16:52:13.736Z,59.86
2023-03-29T16:54:57.285Z,60.24
2023-03-29T16:57:45.504Z,60.25
2023-03-29T17:00:30.064Z,60.52
2023-03-29T17:03:17.075Z,60.77
2023-03-29T17:06:04.265Z,60.84
2023-03-29T17:08:48.653Z,60.66
2023-03-29T17:11:33.107Z,59.53
2023-03-29T17:14:17.438Z,60.54
2023-03-29T17:17:01.731Z,60.93
2023-03-29T17:19:56.601Z,60.79
2023-03-29T17:22:42.217Z,59.59
2023-03-29T17:25:30.275Z,60.25
2023-03-29T17:28:39.265Z,61.04
2023-03-29T17:31:26.608Z,61.20
2023-03-29T17:34:12.356Z,59.91
2023-03-29T17:37:00.335Z,60.19
2023-03-29T17:39:47.692Z,61.65
2023-03-29T17:42:34.071Z,61.19
2023-03-29T17:45:21.699Z,61.65
2023-03-29T17:48:06.558Z,61.10
2023-03-29T17:50:50.867Z,61.68
2023-03-29T17:53:35.159Z,61.45
2023-03-29T17:56:20.643Z,60.09
2023-03-29T17:59:05.042Z,59.72
2023-03-29T18:01:48.960Z,60.12
2023-03-29T18:04:37.111Z,58.73
2023-03-29T18:07:22.532Z,59.11
2023-03-29T18:10:10.680Z,59.62
2023-03-29T18:12:55.161Z,60.70
2023-03-29T18:15:38.962Z,60.31
2023-03-29T18:18:22.831Z,60.72
2023-03-29T18:21:10.431Z,60.32
2023-03-29T18:23:56.800Z,60.50
2023-03-29T18:26:41.298Z,61.40
2023-03-29T18:29:28.443Z,61.24
2023-03-29T18:32:15.770Z,61.18
2023-03-29T18:34:59.845Z,61.32
2023-03-29T18:37:49.337Z,61.01
2023-03-29T18:40:38.009Z,62.06
2023-03-29T18:43:24.815Z,61.29
2023-03-29T18:46:09.156Z,61.93
2023-03-29T18:48:57.788Z,60.51
2023-03-29T18:51:42.383Z,61.54
2023-03-29T18:54:26.741Z,62.46
2023-03-29T18:57:10.873Z,62.93
2023-03-29T18:59:55.473Z,62.91
2023-03-29T19:02:43.691Z,62.51
2023-03-29T19:05:27.885Z,63.34
2023-03-29T19:08:17.355Z,63.50
2023-03-29T19:11:04.805Z,64.46
2023-03-29T19:13:50.827Z,64.12
2023-03-29T19:16:38.217Z,64.65
2023-03-29T19:19:26.691Z,64.67
2023-03-29T19:22:10.941Z,65.00
2023-03-29T19:24:55.517Z,66.19
2023-03-29T19:27:42.985Z,64.59
2023-03-29T19:30:27.400Z,65.18
2023-03-29T19:33:14.719Z,65.72
2023-03-29T19:35:59.106Z,66.56
2023-03-29T19:38:43.311Z,66.51
2023-03-29T19:41:27.540Z,66.22
2023-03-29T19:44:14.888Z,66.64
2023-03-29T19:47:07.142Z,65.65
2023-03-29T19:49:51.953Z,65.98
2023-03-29T19:52:36.152Z,64.20
2023-03-29T19:55:20.158Z,66.35
2023-03-29T19:58:05.440Z,65.83
2023-03-29T20:00:50.824Z,65.75
2023-03-29T20:03:34.458Z,65.78
2023-03-29T20:06:21.142Z,65.29
2023-03-29T20:09:05.494Z,65.86
2023-03-29T20:11:49.048Z,66.75
2023-03-29T20:14:34.352Z,65.99
2023-03-29T20:17:21.228Z,66.03
2023-03-29T20:20:09.170Z,66.36
2023-03-29T20:22:58.302Z,67.42
2023-03-29T20:25:43.300Z,65.24
2023-03-29T20:28:27.459Z,65.24
2023-03-29T20:31:11.178Z,65.95
2023-03-29T20:33:57.033Z,64.90
2023-03-29T20:36:41.280Z,64.49
2023-03-29T20:39:26.136Z,66.00
2023-03-29T20:42:09.784Z,66.65
2023-03-29T20:44:56.513Z,67.34
2023-03-29T20:47:42.674Z,66.74
2023-03-29T20:50:26.976Z,65.33
2023-03-29T20:53:10.490Z,65.65
2023-03-29T20:55:54.050Z,65.70
2023-03-29T20:58:42.053Z,66.76
2023-03-29T21:01:28.064Z,66.75
2023-03-29T21:04:11.787Z,67.68
2023-03-29T21:06:56.333Z,67.04
2023-03-29T21:09:40.029Z,68.12
2023-03-29T21:12:23.748Z,67.14
2023-03-29T21:15:10.561Z,66.34
2023-03-29T21:17:54.579Z,67.59
2023-03-29T21:20:38.164Z,66.98
2023-03-29T21:23:21.691Z,67.15
2023-03-29T21:26:09.595Z,68.34
2023-03-29T21:28:55.880Z,67.37
2023-03-29T21:31:41.804Z,68.02
2023-03-29T21:34:25.994Z,67.10
2023-03-29T21:37:09.543Z,67.48
2023-03-29T21:39:53.194Z,68.90
2023-03-29T21:42:36.912Z,68.60
2023-03-29T21:45:20.674Z,69.76
2023-03-29T21:48:04.451Z,69.44
2023-03-29T21:50:51.231Z,69.15
2023-03-29T21:53:35.429Z,68.91
2023-03-29T21:56:18.954Z,69.09
2023-03-29T21:59:03.028Z,70.62
2023-03-29T22:01:46.604Z,70.24
2023-03-29T22:04:37.153Z,70.14
2023-03-29T22:07:22.821Z,70.08
2023-03-29T22:10:12.532Z,70.93
2023-03-29T22:12:57.245Z,71.24
2023-03-29T22:15:40.787Z,70.80
2023-03-29T22:18:30.289Z,70.63
2023-03-29T22:21:19.601Z,71.12
2023-03-29T22:24:03.441Z,72.20
2023-03-29T22:26:48.208Z,70.92
2023-03-29T22:29:31.715Z,71.48
2023-03-29T22:32:16.651Z,70.11
2023-03-29T22:35:00.742Z,69.61
2023-03-29T22:37:44.527Z,69.22
2023-03-29T22:40:28.069Z,70.04
2023-03-29T22:43:11.637Z,70.66
2023-03-29T22:45:55.307Z,71.93
2023-03-29T22:48:39.607Z,71.81
2023-03-29T22:51:23.164Z,71.88
2023-03-29T22:54:06.704Z,69.94
2023-03-29T22:56:50.504Z,68.96
2023-03-29T22:59:34.183Z,71.48
2023-03-29T23:02:17.745Z,71.00
2023-03-29T23:05:01.291Z,69.80
2023-03-29T23:07:44.796Z,68.92
2023-03-29T23:10:31.691Z,69.87
2023-03-29T23:13:20.705Z,70.31
2023-03-29T23:16:05.055Z,70.08
2023-03-29T23:18:48.829Z,70.23
2023-03-29T23:21:33.012Z,69.52
2023-03-29T23:24:19.243Z,68.22
2023-03-29T23:27:04.983Z,68.72
2023-03-29T23:29:48.478Z,69.15
2023-03-29T23:32:32.589Z,69.36
2023-03-29T23:35:16.946Z,70.87
2023-03-29T23:38:00.892Z,70.38
2023-03-29T23:40:45.206Z,69.80
2023-03-29T23:43:32.988Z,68.38
2023-03-29T23:46:19.047Z,69.66
2023-03-29T23:49:03.437Z,68.89
2023-03-29T23:51:48.394Z,67.52
2023-03-29T23:54:32.123Z,66.84
2023-03-29T23:57:16.000Z,67.22
